Time;durP1;ratioP1;P1;durP2;ratioP2;P2;SDS_P1;SDS_P2;PMS_P1;PMS_P2;Temp;Humidity;BMP_temperature;BMP_pressure;BME280_temperature;BME280_humidity;BME280_pressure;Samples;Min_cycle;Max_cycle;Signal;HPM_P1;HPM_P2
2022/08/15 00:01:31;;;;;;;;;;;;;;;;;;5064637;28;20387;-80
2022/08/15 00:03:59;;;;;;;;;;;;;;;;;;5053676;28;19925;-81
2022/08/15 00:06:27;;;;;;;;;;;;;;;;;;5054414;28;19972;-79
2022/08/15 00:08:54;;;;;;;;;;;;;;;;;;5059246;28;19924;-79
2022/08/15 00:11:22;;;;;;;;;;;;;;;;;;5075065;28;19970;-79
2022/08/15 00:13:51;;;;;;;;;;;;;;;;;;5074690;28;20413;-83
2022/08/15 00:16:19;;;;;;;;;;;;;;;;;;5077536;28;20036;-82
2022/08/15 00:18:46;;;;;;;;;;;;;;;;;;5076528;28;19924;-83
2022/08/15 00:21:13;;;;;;;;;;;;;;;;;;5076773;28;19924;-82
2022/08/15 00:23:40;;;;;;;;;;;;;;;;;;5076641;28;19929;-82
2022/08/15 00:26:08;;;;;;;;;;;;;;;;;;5057114;28;19925;-81
2022/08/15 00:28:35;;;;;;;;;;;;;;;;;;5056538;28;19924;-83
2022/08/15 00:31:05;;;;;;;;;;;;;;;;;;5071617;28;20413;-82
2022/08/15 00:33:32;;;;;;;;;;;;;;;;;;5067326;28;19951;-83
2022/08/15 00:35:58;;;;;;;;;;;;;;;;;;5056021;28;19971;-83
2022/08/15 00:38:27;;;;;;;;;;;;;;;;;;5055222;28;20001;-82
2022/08/15 00:43:40;;;;;;;;;;;;;;;;;;5075905;28;19935;-83
2022/08/15 00:46:09;;;;;;;;;;;;;;;;;;5077053;28;19971;-83
2022/08/15 00:48:42;;;;;;;;;;;;;;;;;;5077579;28;20398;-83
2022/08/15 00:51:11;;;;;;;;;;;;;;;;;;5068441;28;20367;-83
2022/08/15 00:53:38;;;;;;;;;;;;;;;;;;5060073;28;19925;-83
2022/08/15 00:56:06;;;;;;;;;;;;;;;;;;5059407;28;19968;-81
2022/08/15 00:58:32;;;;;;;;;;;;;;;;;;5061209;28;19964;-82
2022/08/15 01:04:04;;;;;;;;;;;;;;;;;;5072871;28;19923;-83
2022/08/15 01:06:33;;;;;;;;;;;;;;;;;;5080659;28;20015;-83
2022/08/15 01:09:02;;;;;;;;;;;;;;;;;;5066824;28;19925;-80
2022/08/15 01:11:31;;;;;;;;;;;;;;;;;;5061370;28;20024;-82
2022/08/15 01:14:00;;;;;;;;;;;;;;;;;;5075426;28;20306;-83
2022/08/15 01:16:28;;;;;;;;;;;;;;;;;;5072937;28;19964;-82
2022/08/15 01:18:54;;;;;;;;;;;;;;;;;;5061372;28;20015;-83
2022/08/15 01:21:26;;;;;;;;;;;;;;;;;;5060865;28;19996;-81
2022/08/15 01:24:01;;;;;;;;;;;;;;;;;;5060637;28;19925;-82
2022/08/15 01:26:29;;;;;;;;;;;;;;;;;;5060572;28;19931;-83
2022/08/15 01:28:56;;;;;;;;;;;;;;;;;;5061470;28;19974;-83
2022/08/15 01:31:25;;;;;;;;;;;;;;;;;;5074214;28;19977;-83
2022/08/15 01:33:52;;;;;;;;;;;;;;;;;;5079994;28;20038;-84
2022/08/15 01:36:20;;;;;;;;;;;;;;;;;;5072188;28;19971;-82
2022/08/15 01:38:49;;;;;;;;;;;;;;;;;;5061486;28;19924;-84
2022/08/15 01:41:20;;;;;;;;;;;;;;;;;;5058362;28;20035;-83
2022/08/15 01:43:52;;;;;;;;;;;;;;;;;;5059813;28;19924;-83
2022/08/15 01:46:21;;;;;;;;;;;;;;;;;;5058412;28;19931;-83
2022/08/15 01:48:50;;;;;;;;;;;;;;;;;;5058777;28;19925;-82
2022/08/15 01:51:17;;;;;;;;;;;;;;;;;;5077955;28;20019;-83
2022/08/15 01:53:46;;;;;;;;;;;;;;;;;;5078401;28;20430;-81
2022/08/15 01:56:15;;;;;;;;;;;;;;;;;;5078470;28;20363;-82
2022/08/15 01:58:43;;;;;;;;;;;;;;;;;;5077351;28;19964;-81
2022/08/15 02:01:12;;;;;;;;;;;;;;;;;;5068901;28;19975;-83
2022/08/15 02:03:40;;;;;;;;;;;;;;;;;;5061698;28;19964;-83
2022/08/15 02:06:10;;;;;;;;;;;;;;;;;;5058163;28;20459;-81
2022/08/15 02:08:37;;;;;;;;;;;;;;;;;;5058083;28;19929;-83
2022/08/15 02:11:05;;;;;;;;;;;;;;;;;;5058030;28;19928;-84
2022/08/15 02:13:31;;;;;;;;;;;;;;;;;;5062326;28;19960;-83
2022/08/15 02:16:00;;;;;;;;;;;;;;;;;;5078439;28;19978;-83
2022/08/15 02:18:28;;;;;;;;;;;;;;;;;;5078476;28;19931;-81
2022/08/15 02:20:57;;;;;;;;;;;;;;;;;;5079054;28;19925;-83
2022/08/15 02:23:24;;;;;;;;;;;;;;;;;;5078992;28;20011;-81
2022/08/15 02:25:51;;;;;;;;;;;;;;;;;;5078811;28;19924;-83
2022/08/15 02:28:17;;;;;;;;;;;;;;;;;;5079249;28;20440;-83
2022/08/15 02:30:44;;;;;;;;;;;;;;;;;;5079157;28;19954;-82
2022/08/15 02:33:11;;;;;;;;;;;;;;;;;;5079957;28;20042;-82
2022/08/15 02:35:39;;;;;;;;;;;;;;;;;;5083040;28;19924;-81
2022/08/15 02:38:06;;;;;;;;;;;;;;;;;;5081490;28;20007;-82
2022/08/15 02:40:33;;;;;;;;;;;;;;;;;;5079095;28;20027;-81
2022/08/15 02:43:01;;;;;;;;;;;;;;;;;;5078995;28;19974;-83
2022/08/15 02:45:28;;;;;;;;;;;;;;;;;;5077472;28;19924;-83
2022/08/15 02:47:54;;;;;;;;;;;;;;;;;;5079028;28;19925;-82
2022/08/15 02:50:22;;;;;;;;;;;;;;;;;;5078279;28;19947;-83
2022/08/15 02:52:50;;;;;;;;;;;;;;;;;;5077757;28;20011;-80
2022/08/15 02:55:18;;;;;;;;;;;;;;;;;;5074885;22;19967;-65
2022/08/15 02:57:45;;;;;;;;;;;;;;;;;;5061739;28;20395;-65
2022/08/15 03:00:15;;;;;;;;;;;;;;;;;;5056519;28;19970;-65
2022/08/15 03:02:49;;;;;;;;;;;;;;;;;;5062128;28;19925;-64
2022/08/15 03:05:16;;;;;;;;;;;;;;;;;;5066550;28;19925;-64
2022/08/15 03:07:44;;;;;;;;;;;;;;;;;;5073013;28;19924;-64
2022/08/15 03:10:12;;;;;;;;;;;;;;;;;;5067789;28;19928;-64
2022/08/15 03:12:47;;;;;;;;;;;;;;;;;;5060894;28;19976;-64
2022/08/15 03:15:14;;;;;;;;;;;;;;;;;;5056587;28;19924;-64
2022/08/15 03:17:40;;;;;;;;;;;;;;;;;;5072852;28;19928;-64
2022/08/15 03:20:08;;;;;;;;;;;;;;;;;;5072536;28;19933;-64
2022/08/15 03:22:42;;;;;;;;;;;;;;;;;;5073059;28;20005;-64
2022/08/15 03:25:09;;;;;;;;;;;;;;;;;;5072304;28;20122;-64
2022/08/15 03:27:37;;;;;;;;;;;;;;;;;;5052777;28;19995;-64
2022/08/15 03:30:07;;;;;;;;;;;;;;;;;;5056043;28;19932;-64
2022/08/15 03:32:40;;;;;;;;;;;;;;;;;;5072844;28;19994;-64
2022/08/15 03:35:09;;;;;;;;;;;;;;;;;;5072609;28;19924;-64
2022/08/15 03:37:36;;;;;;;;;;;;;;;;;;5072032;28;19931;-64
2022/08/15 03:40:03;;;;;;;;;;;;;;;;;;5072296;28;19932;-65
2022/08/15 03:42:30;;;;;;;;;;;;;;;;;;5055484;28;20381;-64
2022/08/15 03:44:58;;;;;;;;;;;;;;;;;;5052247;28;19947;-64
2022/08/15 03:47:24;;;;;;;;;;;;;;;;;;5065232;28;19924;-64
2022/08/15 03:49:51;;;;;;;;;;;;;;;;;;5072092;28;19929;-64
2022/08/15 03:52:19;;;;;;;;;;;;;;;;;;5072352;28;20381;-64
2022/08/15 03:54:45;;;;;;;;;;;;;;;;;;5064867;28;19925;-64
2022/08/15 03:57:12;;;;;;;;;;;;;;;;;;5052551;28;19925;-64
2022/08/15 03:59:39;;;;;;;;;;;;;;;;;;5052243;28;19931;-64
2022/08/15 04:02:08;;;;;;;;;;;;;;;;;;5069096;28;19925;-63
2022/08/15 04:04:35;;;;;;;;;;;;;;;;;;5064131;28;19951;-64
2022/08/15 04:07:03;;;;;;;;;;;;;;;;;;5064298;28;20365;-63
2022/08/15 04:09:30;;;;;;;;;;;;;;;;;;5071795;28;19932;-63
2022/08/15 04:11:57;;;;;;;;;;;;;;;;;;5072036;28;19929;-63
2022/08/15 04:14:23;;;;;;;;;;;;;;;;;;5072192;28;19924;-63
2022/08/15 04:16:50;;;;;;;;;;;;;;;;;;5070941;28;19933;-64
2022/08/15 04:19:19;;;;;;;;;;;;;;;;;;5071840;28;19931;-64
2022/08/15 04:21:45;;;;;;;;;;;;;;;;;;5072330;28;20389;-64
2022/08/15 04:24:12;;;;;;;;;;;;;;;;;;5075327;28;20387;-67
2022/08/15 04:26:38;;;;;;;;;;;;;;;;;;5075737;28;19928;-64
2022/08/15 04:29:05;;;;;;;;;;;;;;;;;;5075887;28;20373;-64
2022/08/15 04:31:32;;;;;;;;;;;;;;;;;;5075728;28;19946;-64
2022/08/15 04:33:58;;;;;;;;;;;;;;;;;;5075953;28;19931;-64
2022/08/15 04:36:26;;;;;;;;;;;;;;;;;;5075100;28;19962;-64
2022/08/15 04:38:53;;;;;;;;;;;;;;;;;;5075952;28;19925;-64
2022/08/15 04:41:20;;;;;;;;;;;;;;;;;;5075745;28;20421;-64
2022/08/15 04:43:46;;;;;;;;;;;;;;;;;;5075776;28;19924;-64
2022/08/15 04:46:13;;;;;;;;;;;;;;;;;;5071142;28;19924;-64
2022/08/15 04:48:41;;;;;;;;;;;;;;;;;;5055815;28;19952;-64
2022/08/15 04:51:07;;;;;;;;;;;;;;;;;;5055984;28;20369;-65
2022/08/15 04:53:37;;;;;;;;;;;;;;;;;;5055587;28;19932;-64
2022/08/15 04:56:05;;;;;;;;;;;;;;;;;;5055582;28;19932;-64
2022/08/15 04:58:32;;;;;;;;;;;;;;;;;;5075864;28;19931;-64
2022/08/15 05:01:01;;;;;;;;;;;;;;;;;;5075443;28;19978;-65
2022/08/15 05:03:29;;;;;;;;;;;;;;;;;;5075841;28;19947;-64
2022/08/15 05:05:56;;;;;;;;;;;;;;;;;;5075398;28;19928;-65
2022/08/15 05:08:25;;;;;;;;;;;;;;;;;;5074924;28;19935;-64
2022/08/15 05:10:55;;;;;;;;;;;;;;;;;;5075092;28;20037;-64
2022/08/15 05:13:23;;;;;;;;;;;;;;;;;;5075595;28;19925;-64
2022/08/15 05:15:50;;;;;;;;;;;;;;;;;;5075244;28;19933;-64
2022/08/15 05:18:17;;;;;;;;;;;;;;;;;;5075397;28;19933;-64
2022/08/15 05:20:43;;;;;;;;;;;;;;;;;;5075045;28;19982;-64
2022/08/15 05:23:11;;;;;;;;;;;;;;;;;;5075071;28;19928;-64
2022/08/15 05:25:44;;;;;;;;;;;;;;;;;;5071999;28;19933;-64
2022/08/15 05:28:13;;;;;;;;;;;;;;;;;;5055152;28;19936;-64
2022/08/15 05:30:40;;;;;;;;;;;;;;;;;;5054990;28;19925;-65
2022/08/15 05:33:07;;;;;;;;;;;;;;;;;;5055170;28;19925;-65
2022/08/15 05:35:34;;;;;;;;;;;;;;;;;;5054614;28;19932;-65
2022/08/15 05:38:03;;;;;;;;;;;;;;;;;;5055122;28;20431;-64
2022/08/15 05:40:34;;;;;;;;;;;;;;;;;;5058027;28;19928;-65
2022/08/15 05:43:04;;;;;;;;;;;;;;;;;;5074815;28;20002;-65
2022/08/15 05:45:35;;;;;;;;;;;;;;;;;;5074491;28;19937;-64
2022/08/15 05:48:05;;;;;;;;;;;;;;;;;;5074936;28;19928;-64
2022/08/15 05:50:32;;;;;;;;;;;;;;;;;;5074606;28;19970;-64
2022/08/15 05:53:06;;;;;;;;;;;;;;;;;;5074688;28;19924;-64
2022/08/15 05:55:37;;;;;;;;;;;;;;;;;;5074840;28;19932;-65
2022/08/15 05:58:10;;;;;;;;;;;;;;;;;;5074554;28;19970;-65
2022/08/15 06:00:40;;;;;;;;;;;;;;;;;;5074318;28;19924;-65
2022/08/15 06:03:08;;;;;;;;;;;;;;;;;;5074211;28;19932;-64
2022/08/15 06:05:36;;;;;;;;;;;;;;;;;;5074330;28;19924;-64
2022/08/15 06:08:07;;;;;;;;;;;;;;;;;;5074426;28;19925;-64
2022/08/15 06:10:36;;;;;;;;;;;;;;;;;;5073848;28;20020;-64
2022/08/15 06:13:05;;;;;;;;;;;;;;;;;;5074347;28;19993;-64
2022/08/15 06:15:34;;;;;;;;;;;;;;;;;;5074413;28;20327;-63
2022/08/15 06:18:03;;;;;;;;;;;;;;;;;;5061589;28;19932;-63
2022/08/15 06:20:36;;;;;;;;;;;;;;;;;;5053997;28;20363;-63
2022/08/15 06:23:07;;;;;;;;;;;;;;;;;;5053944;28;19971;-63
2022/08/15 06:25:38;;;;;;;;;;;;;;;;;;5053997;28;19974;-63
2022/08/15 06:28:19;;;;;;;;;;;;;;;;;;5059718;28;20400;-63
2022/08/15 06:30:49;;;;;;;;;;;;;;;;;;5053439;28;19929;-63
2022/08/15 06:33:26;;;;;;;;;;;;;;;;;;5053971;28;20382;-63
2022/08/15 06:35:55;;;;;;;;;;;;;;;;;;5053764;28;19932;-64
2022/08/15 06:38:24;;;;;;;;;;;;;;;;;;5055933;28;20296;-63
2022/08/15 06:40:56;;;;;;;;;;;;;;;;;;5053844;28;19929;-63
2022/08/15 06:43:22;;;;;;;;;;;;;;;;;;5053466;28;20440;-64
2022/08/15 06:45:50;;;;;;;;;;;;;;;;;;5069284;28;20396;-64
2022/08/15 06:48:20;;;;;;;;;;;;;;;;;;5053651;28;20020;-64
2022/08/15 06:50:50;;;;;;;;;;;;;;;;;;5053623;28;19933;-65
2022/08/15 06:53:19;;;;;;;;;;;;;;;;;;5052718;28;19929;-65
2022/08/15 06:55:48;;;;;;;;;;;;;;;;;;5061184;28;19928;-66
2022/08/15 06:58:17;;;;;;;;;;;;;;;;;;5073711;28;19928;-66
2022/08/15 07:00:45;;;;;;;;;;;;;;;;;;5067471;28;19925;-65
2022/08/15 07:03:16;;;;;;;;;;;;;;;;;;5053236;28;19929;-63
2022/08/15 07:05:45;;;;;;;;;;;;;;;;;;5053897;28;19929;-65
2022/08/15 07:08:18;;;;;;;;;;;;;;;;;;5053549;28;19991;-65
2022/08/15 07:10:46;;;;;;;;;;;;;;;;;;5053146;28;19968;-64
2022/08/15 07:13:16;;;;;;;;;;;;;;;;;;5053014;28;20377;-65
2022/08/15 07:15:49;;;;;;;;;;;;;;;;;;5071831;28;19974;-65
2022/08/15 07:18:21;;;;;;;;;;;;;;;;;;5073378;28;20284;-64
2022/08/15 07:20:47;;;;;;;;;;;;;;;;;;5072968;28;19978;-64
2022/08/15 07:23:16;;;;;;;;;;;;;;;;;;5072670;28;19986;-65
2022/08/15 07:25:46;;;;;;;;;;;;;;;;;;5073023;28;19939;-64
2022/08/15 07:28:13;;;;;;;;;;;;;;;;;;5062479;28;19933;-65
2022/08/15 07:30:45;;;;;;;;;;;;;;;;;;5073049;28;19924;-65
2022/08/15 07:33:27;;;;;;;;;;;;;;;;;;5072701;28;19932;-64
2022/08/15 07:35:59;;;;;;;;;;;;;;;;;;5072857;28;19924;-65
2022/08/15 07:38:30;;;;;;;;;;;;;;;;;;5072926;28;19925;-65
2022/08/15 07:41:12;;;;;;;;;;;;;;;;;;5071450;28;20381;-65
2022/08/15 07:43:38;;;;;;;;;;;;;;;;;;5052583;28;19994;-65
2022/08/15 07:46:07;;;;;;;;;;;;;;;;;;5068818;28;19968;-64
2022/08/15 07:48:34;;;;;;;;;;;;;;;;;;5072387;28;19924;-65
2022/08/15 07:51:06;;;;;;;;;;;;;;;;;;5072548;28;19924;-65
2022/08/15 07:53:34;;;;;;;;;;;;;;;;;;5072513;28;19947;-66
2022/08/15 07:56:05;;;;;;;;;;;;;;;;;;5072351;28;19975;-64
2022/08/15 07:58:33;;;;;;;;;;;;;;;;;;5072506;28;19993;-63
2022/08/15 08:01:08;;;;;;;;;;;;;;;;;;5072487;28;20011;-64
2022/08/15 08:03:35;;;;;;;;;;;;;;;;;;5072565;28;19925;-63
2022/08/15 08:06:06;;;;;;;;;;;;;;;;;;5072589;28;19934;-65
2022/08/15 08:08:38;;;;;;;;;;;;;;;;;;5072548;28;19950;-65
2022/08/15 08:11:10;;;;;;;;;;;;;;;;;;5072454;28;20282;-65
2022/08/15 08:13:42;;;;;;;;;;;;;;;;;;5063935;28;20361;-65
2022/08/15 08:16:12;;;;;;;;;;;;;;;;;;5052493;28;19925;-65
2022/08/15 08:18:44;;;;;;;;;;;;;;;;;;5052211;28;19931;-65
2022/08/15 08:21:13;;;;;;;;;;;;;;;;;;5060339;28;19970;-63
2022/08/15 08:23:42;;;;;;;;;;;;;;;;;;5072185;28;19925;-65
2022/08/15 08:26:17;;;;;;;;;;;;;;;;;;5066809;28;19932;-65
2022/08/15 08:28:46;;;;;;;;;;;;;;;;;;5072192;28;19925;-65
2022/08/15 08:31:16;;;;;;;;;;;;;;;;;;5051975;28;19925;-66
2022/08/15 08:33:48;;;;;;;;;;;;;;;;;;5052364;28;19929;-64
2022/08/15 08:36:20;;;;;;;;;;;;;;;;;;5052068;28;19925;-65
2022/08/15 08:38:48;;;;;;;;;;;;;;;;;;5052135;28;19932;-64
2022/08/15 08:41:34;;;;;;;;;;;;;;;;;;5055533;28;19931;-64
2022/08/15 08:44:12;;;;;;;;;;;;;;;;;;5071902;28;19932;-65
2022/08/15 08:46:48;;;;;;;;;;;;;;;;;;5057129;28;19924;-65
2022/08/15 08:49:20;;;;;;;;;;;;;;;;;;5071660;28;19925;-65
2022/08/15 08:51:52;;;;;;;;;;;;;;;;;;5069727;28;19931;-64
2022/08/15 08:54:22;;;;;;;;;;;;;;;;;;5071563;28;19925;-65
2022/08/15 08:56:53;;;;;;;;;;;;;;;;;;5087688;22;20023;-68
2022/08/15 08:59:22;;;;;;;;;;;;;;;;;;5080299;28;19932;-68
2022/08/15 09:01:51;;;;;;;;;;;;;;;;;;5076204;28;19925;-68
2022/08/15 09:04:20;;;;;;;;;;;;;;;;;;5081296;28;19978;-69
2022/08/15 09:06:49;;;;;;;;;;;;;;;;;;5079649;28;20446;-68
2022/08/15 09:09:20;;;;;;;;;;;;;;;;;;5077698;28;20446;-68
2022/08/15 09:11:49;;;;;;;;;;;;;;;;;;5083940;28;19924;-68
2022/08/15 09:14:20;;;;;;;;;;;;;;;;;;5083945;28;19932;-68
2022/08/15 09:16:47;;;;;;;;;;;;;;;;;;5081864;28;19968;-68
2022/08/15 09:19:16;;;;;;;;;;;;;;;;;;5086398;28;19931;-68
2022/08/15 09:21:43;;;;;;;;;;;;;;;;;;5083931;28;19932;-68
2022/08/15 09:24:10;;;;;;;;;;;;;;;;;;5084113;28;20003;-67
2022/08/15 09:26:40;;;;;;;;;;;;;;;;;;5081820;28;19924;-69
2022/08/15 09:29:09;;;;;;;;;;;;;;;;;;5081704;28;20024;-68
2022/08/15 09:31:39;;;;;;;;;;;;;;;;;;5089144;28;19931;-68
2022/08/15 09:34:24;;;;;;;;;;;;;;;;;;5095080;28;20797;-68
2022/08/15 09:37:06;;;;;;;;;;;;;;;;;;5096256;28;19924;-68
2022/08/15 09:39:48;;;;;;;;;;;;;;;;;;5095859;28;19927;-67
2022/08/15 09:42:27;;;;;;;;;;;;;;;;;;5096485;28;20503;-68
2022/08/15 09:45:01;;;;;;;;;;;;;;;;;;5096347;28;19931;-68
2022/08/15 09:47:46;;;;;;;;;;;;;;;;;;5096223;28;20440;-68
2022/08/15 09:50:28;;;;;;;;;;;;;;;;;;5090960;28;20407;-68
2022/08/15 09:53:01;;;;;;;;;;;;;;;;;;5073569;28;20038;-70
2022/08/15 09:55:31;;;;;;;;;;;;;;;;;;5075213;28;20346;-70
2022/08/15 09:57:58;;;;;;;;;;;;;;;;;;5075341;28;19924;-70
2022/08/15 10:00:32;;;;;;;;;;;;;;;;;;5076018;28;19992;-69
2022/08/15 10:03:07;;;;;;;;;;;;;;;;;;5075711;28;20292;-73
2022/08/15 10:05:45;;;;;;;;;;;;;;;;;;5075986;28;20003;-67
2022/08/15 10:08:13;;;;;;;;;;;;;;;;;;5075661;28;19925;-68
2022/08/15 10:10:52;;;;;;;;;;;;;;;;;;5076795;28;19924;-67
2022/08/15 10:13:45;;;;;;;;;;;;;;;;;;5066847;28;19925;-67
2022/08/15 10:16:30;;;;;;;;;;;;;;;;;;5075788;28;19939;-66
2022/08/15 10:19:09;;;;;;;;;;;;;;;;;;5074312;28;20278;-66
2022/08/15 10:21:38;;;;;;;;;;;;;;;;;;5074533;28;20030;-66
2022/08/15 10:24:08;;;;;;;;;;;;;;;;;;5075025;28;19932;-66
2022/08/15 10:26:37;;;;;;;;;;;;;;;;;;5073994;28;19924;-66
2022/08/15 10:29:22;;;;;;;;;;;;;;;;;;5073920;28;19928;-68
2022/08/15 10:31:52;;;;;;;;;;;;;;;;;;5073450;28;19924;-69
2022/08/15 10:34:29;;;;;;;;;;;;;;;;;;5074865;28;20289;-68
2022/08/15 10:37:20;;;;;;;;;;;;;;;;;;5072884;28;19934;-66
2022/08/15 10:39:57;;;;;;;;;;;;;;;;;;5056940;28;20043;-66
2022/08/15 10:42:28;;;;;;;;;;;;;;;;;;5072515;28;19946;-68
2022/08/15 10:44:58;;;;;;;;;;;;;;;;;;5074633;28;19931;-66
2022/08/15 10:47:27;;;;;;;;;;;;;;;;;;5073264;28;19998;-67
2022/08/15 10:50:01;;;;;;;;;;;;;;;;;;5065914;28;19928;-66
2022/08/15 10:52:33;;;;;;;;;;;;;;;;;;5080478;28;19924;-68
2022/08/15 10:55:24;;;;;;;;;;;;;;;;;;5073322;28;19998;-65
2022/08/15 10:57:52;;;;;;;;;;;;;;;;;;5058005;28;19928;-64
2022/08/15 11:00:37;;;;;;;;;;;;;;;;;;5073296;28;19933;-66
2022/08/15 11:03:05;;;;;;;;;;;;;;;;;;5068528;28;19924;-69
2022/08/15 11:05:33;;;;;;;;;;;;;;;;;;5079693;28;20058;-69
2022/08/15 11:07:59;;;;;;;;;;;;;;;;;;5073499;28;19946;-65
2022/08/15 11:10:27;;;;;;;;;;;;;;;;;;5072789;28;19981;-75
2022/08/15 11:12:57;;;;;;;;;;;;;;;;;;5073769;28;19924;-76
2022/08/15 11:15:24;;;;;;;;;;;;;;;;;;5073329;28;19924;-67
2022/08/15 11:17:54;;;;;;;;;;;;;;;;;;5074151;28;19935;-70
2022/08/15 11:20:24;;;;;;;;;;;;;;;;;;5072729;28;21261;-67
2022/08/15 11:22:54;;;;;;;;;;;;;;;;;;5074673;28;19928;-67
2022/08/15 11:25:24;;;;;;;;;;;;;;;;;;5075144;28;19931;-67
2022/08/15 11:28:01;;;;;;;;;;;;;;;;;;5056137;28;20397;-66
2022/08/15 11:30:28;;;;;;;;;;;;;;;;;;5073405;28;19924;-66
2022/08/15 11:32:55;;;;;;;;;;;;;;;;;;5072591;28;20385;-66
2022/08/15 11:35:22;;;;;;;;;;;;;;;;;;5073147;28;19928;-66
2022/08/15 11:37:49;;;;;;;;;;;;;;;;;;5073413;28;19978;-66
2022/08/15 11:40:25;;;;;;;;;;;;;;;;;;5072910;28;19982;-68
2022/08/15 11:42:53;;;;;;;;;;;;;;;;;;5073341;28;19924;-67
2022/08/15 11:45:21;;;;;;;;;;;;;;;;;;5073768;28;20407;-68
2022/08/15 11:47:50;;;;;;;;;;;;;;;;;;5093119;28;20408;-67
2022/08/15 11:50:23;;;;;;;;;;;;;;;;;;5093433;28;19981;-67
2022/08/15 11:52:51;;;;;;;;;;;;;;;;;;5053337;28;20373;-67
2022/08/15 11:55:22;;;;;;;;;;;;;;;;;;5053082;28;19924;-67
2022/08/15 11:57:50;;;;;;;;;;;;;;;;;;5075492;28;20391;-67
2022/08/15 12:00:24;;;;;;;;;;;;;;;;;;5073529;28;19932;-67
2022/08/15 12:02:51;;;;;;;;;;;;;;;;;;5073821;28;20073;-66
2022/08/15 12:05:26;;;;;;;;;;;;;;;;;;5073654;28;20290;-66
2022/08/15 12:07:56;;;;;;;;;;;;;;;;;;5072943;28;20344;-67
2022/08/15 12:10:29;;;;;;;;;;;;;;;;;;5073427;28;19924;-66
2022/08/15 12:12:56;;;;;;;;;;;;;;;;;;5081270;28;19925;-68
2022/08/15 12:15:39;;;;;;;;;;;;;;;;;;5072382;28;20017;-67
2022/08/15 12:18:07;;;;;;;;;;;;;;;;;;5068253;28;19969;-68
2022/08/15 12:20:41;;;;;;;;;;;;;;;;;;5085154;28;19932;-68
2022/08/15 12:23:33;;;;;;;;;;;;;;;;;;5071615;28;19974;-68
2022/08/15 12:26:03;;;;;;;;;;;;;;;;;;5071783;28;20449;-67
2022/08/15 12:28:30;;;;;;;;;;;;;;;;;;5071802;28;19928;-68
2022/08/15 12:30:57;;;;;;;;;;;;;;;;;;5070542;28;19932;-67
2022/08/15 12:33:24;;;;;;;;;;;;;;;;;;5070706;28;19924;-67
2022/08/15 12:35:52;;;;;;;;;;;;;;;;;;5070306;28;20401;-67
2022/08/15 12:38:19;;;;;;;;;;;;;;;;;;5070489;28;19929;-68
2022/08/15 12:40:48;;;;;;;;;;;;;;;;;;5071660;28;20154;-69
2022/08/15 12:43:17;;;;;;;;;;;;;;;;;;5070625;28;19931;-67
2022/08/15 12:45:43;;;;;;;;;;;;;;;;;;5079871;28;20460;-68
2022/08/15 12:48:21;;;;;;;;;;;;;;;;;;5094842;28;19930;-67
2022/08/15 12:50:48;;;;;;;;;;;;;;;;;;5084625;28;19936;-68
2022/08/15 12:53:14;;;;;;;;;;;;;;;;;;5078107;28;19928;-67
2022/08/15 12:55:41;;;;;;;;;;;;;;;;;;5088444;28;19931;-67
2022/08/15 12:58:08;;;;;;;;;;;;;;;;;;5082804;28;19928;-67
2022/08/15 13:00:37;;;;;;;;;;;;;;;;;;5073327;28;20270;-67
2022/08/15 13:03:08;;;;;;;;;;;;;;;;;;5074251;28;20035;-67
2022/08/15 13:05:41;;;;;;;;;;;;;;;;;;5074895;28;20687;-67
2022/08/15 13:08:08;;;;;;;;;;;;;;;;;;5079413;28;19931;-66
2022/08/15 13:10:36;;;;;;;;;;;;;;;;;;5075910;28;19928;-67
2022/08/15 13:13:03;;;;;;;;;;;;;;;;;;5079179;28;19987;-67
2022/08/15 13:15:30;;;;;;;;;;;;;;;;;;5081071;28;19928;-69
2022/08/15 13:17:59;;;;;;;;;;;;;;;;;;5074852;28;19934;-67
2022/08/15 13:25:55;;;;;;;;;;;;;;;;;;5094605;28;19931;-66
2022/08/15 13:28:22;;;;;;;;;;;;;;;;;;5094199;28;20315;-67
2022/08/15 13:30:49;;;;;;;;;;;;;;;;;;5090612;28;19935;-66
2022/08/15 13:33:17;;;;;;;;;;;;;;;;;;5073046;28;19932;-67
2022/08/15 13:35:44;;;;;;;;;;;;;;;;;;5076036;28;19932;-67
2022/08/15 13:38:11;;;;;;;;;;;;;;;;;;5092855;28;19928;-65
2022/08/15 13:40:38;;;;;;;;;;;;;;;;;;5093607;28;19971;-67
2022/08/15 13:43:05;;;;;;;;;;;;;;;;;;5093378;28;19973;-67
2022/08/15 13:45:32;;;;;;;;;;;;;;;;;;5093525;28;20377;-67
2022/08/15 13:47:59;;;;;;;;;;;;;;;;;;5093428;28;19927;-67
2022/08/15 13:50:27;;;;;;;;;;;;;;;;;;5093660;28;20031;-67
2022/08/15 13:52:53;;;;;;;;;;;;;;;;;;5071295;28;19978;-67
2022/08/15 13:55:21;;;;;;;;;;;;;;;;;;5075065;28;19931;-67
2022/08/15 13:57:48;;;;;;;;;;;;;;;;;;5080121;28;19932;-68
2022/08/15 14:00:16;;;;;;;;;;;;;;;;;;5081933;28;19924;-67
2022/08/15 14:02:44;;;;;;;;;;;;;;;;;;5079049;28;20075;-67
2022/08/15 14:05:16;;;;;;;;;;;;;;;;;;5080309;28;19931;-67
2022/08/15 14:07:45;;;;;;;;;;;;;;;;;;5080389;28;19932;-68
2022/08/15 14:10:12;;;;;;;;;;;;;;;;;;5079112;28;20343;-67
2022/08/15 14:12:42;;;;;;;;;;;;;;;;;;5081094;28;19925;-67
2022/08/15 14:15:10;;;;;;;;;;;;;;;;;;5083386;28;19975;-67
2022/08/15 14:17:36;;;;;;;;;;;;;;;;;;5062192;28;19925;-67
2022/08/15 14:20:05;;;;;;;;;;;;;;;;;;5079009;28;19940;-67
2022/08/15 14:22:32;;;;;;;;;;;;;;;;;;5078593;28;19928;-67
2022/08/15 14:25:00;;;;;;;;;;;;;;;;;;5085584;28;20264;-69
2022/08/15 14:27:26;;;;;;;;;;;;;;;;;;5071616;28;20437;-65
2022/08/15 14:29:53;;;;;;;;;;;;;;;;;;5072237;28;19924;-66
2022/08/15 14:32:21;;;;;;;;;;;;;;;;;;5072277;28;19931;-64
2022/08/15 14:34:48;;;;;;;;;;;;;;;;;;5072421;28;20297;-65
2022/08/15 14:37:16;;;;;;;;;;;;;;;;;;5072270;28;19929;-65
2022/08/15 14:39:45;;;;;;;;;;;;;;;;;;5069455;28;19924;-66
2022/08/15 14:42:14;;;;;;;;;;;;;;;;;;5071703;28;19925;-65
2022/08/15 14:44:42;;;;;;;;;;;;;;;;;;5076412;28;19924;-65
2022/08/15 14:47:09;;;;;;;;;;;;;;;;;;5092191;28;19928;-65
2022/08/15 14:49:36;;;;;;;;;;;;;;;;;;5090392;28;19928;-65
2022/08/15 14:52:03;;;;;;;;;;;;;;;;;;5076080;28;20015;-65
2022/08/15 14:54:32;;;;;;;;;;;;;;;;;;5080094;28;19928;-65
2022/08/15 14:56:59;;;;;;;;;;;;;;;;;;5071995;28;20075;-65
2022/08/15 14:59:28;;;;;;;;;;;;;;;;;;5071550;28;19978;-65
2022/08/15 15:01:54;;;;;;;;;;;;;;;;;;5072876;28;19964;-65
2022/08/15 15:04:22;;;;;;;;;;;;;;;;;;5071551;28;19925;-65
2022/08/15 15:06:49;;;;;;;;;;;;;;;;;;5070990;28;19936;-65
2022/08/15 15:09:16;;;;;;;;;;;;;;;;;;5083696;28;20560;-65
2022/08/15 15:11:45;;;;;;;;;;;;;;;;;;5091782;28;19930;-65
2022/08/15 15:14:11;;;;;;;;;;;;;;;;;;5080213;28;19924;-66
2022/08/15 15:16:40;;;;;;;;;;;;;;;;;;5071179;28;19967;-66
2022/08/15 15:19:07;;;;;;;;;;;;;;;;;;5070175;28;20011;-66
2022/08/15 15:21:34;;;;;;;;;;;;;;;;;;5087516;28;19928;-66
2022/08/15 15:24:02;;;;;;;;;;;;;;;;;;5071613;28;20010;-66
2022/08/15 15:26:30;;;;;;;;;;;;;;;;;;5070113;28;19929;-66
2022/08/15 15:28:57;;;;;;;;;;;;;;;;;;5076651;28;19947;-66
2022/08/15 15:31:30;;;;;;;;;;;;;;;;;;5076399;28;19930;-65
2022/08/15 15:34:00;;;;;;;;;;;;;;;;;;5081148;22;20408;-68
2022/08/15 15:36:30;;;;;;;;;;;;;;;;;;5071067;28;20381;-65
2022/08/15 15:39:00;;;;;;;;;;;;;;;;;;5071497;28;19977;-67
2022/08/15 15:41:26;;;;;;;;;;;;;;;;;;5071318;28;19924;-66
2022/08/15 15:43:54;;;;;;;;;;;;;;;;;;5072958;28;19931;-66
2022/08/15 15:46:21;;;;;;;;;;;;;;;;;;5071375;28;20266;-66
2022/08/15 15:48:49;;;;;;;;;;;;;;;;;;5070936;28;20340;-66
2022/08/15 15:51:18;;;;;;;;;;;;;;;;;;5070933;28;19931;-66
2022/08/15 15:53:45;;;;;;;;;;;;;;;;;;5070599;28;19932;-67
2022/08/15 15:56:11;;;;;;;;;;;;;;;;;;5070657;28;20404;-66
2022/08/15 15:58:38;;;;;;;;;;;;;;;;;;5070367;28;19928;-66
2022/08/15 16:01:06;;;;;;;;;;;;;;;;;;5070414;28;19928;-66
2022/08/15 16:03:33;;;;;;;;;;;;;;;;;;5070453;28;19924;-67
2022/08/15 16:05:59;;;;;;;;;;;;;;;;;;5070483;28;19925;-67
2022/08/15 16:08:29;;;;;;;;;;;;;;;;;;5068907;28;20304;-63
2022/08/15 16:10:58;;;;;;;;;;;;;;;;;;5068230;28;19995;-65
2022/08/15 16:13:29;;;;;;;;;;;;;;;;;;5068569;28;19924;-65
2022/08/15 16:15:59;;;;;;;;;;;;;;;;;;5070314;28;19930;-66
2022/08/15 16:18:29;;;;;;;;;;;;;;;;;;5061020;28;19931;-65
2022/08/15 16:20:58;;;;;;;;;;;;;;;;;;5074393;28;20456;-66
2022/08/15 16:23:30;;;;;;;;;;;;;;;;;;5076456;28;19928;-66
2022/08/15 16:26:01;;;;;;;;;;;;;;;;;;5076443;28;19932;-67
2022/08/15 16:28:32;;;;;;;;;;;;;;;;;;5076746;28;19924;-66
2022/08/15 16:31:02;;;;;;;;;;;;;;;;;;5077537;28;20392;-66
2022/08/15 16:33:35;;;;;;;;;;;;;;;;;;5061845;28;19929;-66
2022/08/15 16:36:03;;;;;;;;;;;;;;;;;;5075545;28;19978;-67
2022/08/15 16:38:33;;;;;;;;;;;;;;;;;;5073827;28;20344;-66
2022/08/15 16:41:04;;;;;;;;;;;;;;;;;;5070408;28;19924;-66
2022/08/15 16:43:34;;;;;;;;;;;;;;;;;;5076339;28;19925;-65
2022/08/15 16:46:12;;;;;;;;;;;;;;;;;;5075789;28;19970;-66
2022/08/15 16:48:44;;;;;;;;;;;;;;;;;;5076704;28;20393;-68
2022/08/15 16:51:13;;;;;;;;;;;;;;;;;;5076631;28;20016;-66
2022/08/15 16:53:46;;;;;;;;;;;;;;;;;;5076287;28;20304;-66
2022/08/15 16:56:19;;;;;;;;;;;;;;;;;;5076822;28;19924;-66
2022/08/15 16:58:55;;;;;;;;;;;;;;;;;;5068360;28;19982;-67
2022/08/15 17:01:27;;;;;;;;;;;;;;;;;;5076856;28;19924;-67
2022/08/15 17:04:15;;;;;;;;;;;;;;;;;;5075782;28;19924;-66
2022/08/15 17:06:46;;;;;;;;;;;;;;;;;;5069157;28;20424;-66
2022/08/15 17:09:19;;;;;;;;;;;;;;;;;;5067860;28;19928;-67
2022/08/15 17:11:52;;;;;;;;;;;;;;;;;;5075293;28;20360;-66
2022/08/15 17:14:24;;;;;;;;;;;;;;;;;;5062740;28;19933;-66